Wetterdaten: Freitag, 31.10.2014
Datum Zeit Temperatur Luftfeuchte Luftdruck Regen Wind Richtung Richtung Taupunkt Windchill Windben
31.10.2014 00:00 3,0 C 95 % 1027,4 hPa 0,0 l/m 0,2 km/h (0 Bft) S-SO 157 2,3 C 2,3 C 0,0 km/h (0 Bft)
31.10.2014 00:05 2,6 C 96 % 1027,4 hPa 0,0 l/m 0,0 km/h (0 Bft) S-SO 157 2,0 C 2,1 C 0,0 km/h (0 Bft)
31.10.2014 00:10 2,4 C 96 % 1027,4 hPa 0,0 l/m 0,0 km/h (0 Bft) SO 135 1,8 C 2,0 C 0,0 km/h (0 Bft)
31.10.2014 00:15 2,1 C 96 % 1027,4 hPa 0,0 l/m 0,0 km/h (0 Bft) S-SO 157 1,5 C 1,8 C 0,0 km/h (0 Bft)
31.10.2014 00:20 2,3 C 96 % 1027,5 hPa 0,0 l/m 0,0 km/h (0 Bft) S 180 1,7 C 1,7 C 0,0 km/h (0 Bft)
31.10.2014 00:25 2,2 C 96 % 1027,5 hPa 0,0 l/m 0,0 km/h (0 Bft) S-SO 157 1,6 C 1,7 C 0,0 km/h (0 Bft)
31.10.2014 00:30 2,1 C 96 % 1027,5 hPa 0,0 l/m 0,0 km/h (0 Bft) S-SO 157 1,5 C 1,7 C 0,0 km/h (0 Bft)
31.10.2014 00:35 2,1 C 96 % 1027,5 hPa 0,0 l/m 0,0 km/h (0 Bft) S-SO 157 1,5 C 1,8 C 0,0 km/h (0 Bft)
31.10.2014 00:40 2,1 C 96 % 1027,4 hPa 0,0 l/m 0,0 km/h (0 Bft) SO 135 1,5 C 1,8 C 0,0 km/h (0 Bft)
31.10.2014 00:45 1,9 C 96 % 1027,4 hPa 0,0 l/m 0,0 km/h (0 Bft) SO 135 1,3 C 1,6 C 0,0 km/h (0 Bft)
31.10.2014 00:50 2,1 C 96 % 1027,4 hPa 0,0 l/m 0,0 km/h (0 Bft) SO 135 1,5 C 1,6 C 0,0 km/h (0 Bft)
31.10.2014 00:55 2,0 C 96 % 1027,4 hPa 0,0 l/m 0,0 km/h (0 Bft) S 180 1,4 C 1,4 C 0,0 km/h (0 Bft)
31.10.2014 01:00 2,0 C 96 % 1027,6 hPa 0,0 l/m 0,0 km/h (0 Bft) S 180 1,4 C 1,3 C 0,0 km/h (0 Bft)
31.10.2014 01:05 2,1 C 96 % 1027,6 hPa 0,0 l/m 0,0 km/h (0 Bft) S 180 1,5 C 1,2 C 0,0 km/h (0 Bft)
31.10.2014 01:10 2,0 C 96 % 1027,6 hPa 0,0 l/m 0,0 km/h (0 Bft) S 180 1,4 C 1,2 C 0,0 km/h (0 Bft)
31.10.2014 01:13 2,0 C 96 % 1027,6 hPa 0,0 l/m 0,0 km/h (0 Bft) S-SW 202 1,4 C 1,4 C 0,0 km/h (0 Bft)
31.10.2014 01:15 2,0 C 96 % 1027,6 hPa 0,0 l/m 0,0 km/h (0 Bft) S-SW 202 1,4 C 1,4 C 0,0 km/h (0 Bft)
31.10.2014 01:20 2,0 C 96 % 1027,4 hPa 0,0 l/m 0,0 km/h (0 Bft) S-SW 202 1,4 C 1,3 C 0,0 km/h (0 Bft)
31.10.2014 01:25 1,8 C 96 % 1027,4 hPa 0,0 l/m 0,0 km/h (0 Bft) O-SO 112 1,2 C 1,2 C 0,0 km/h (0 Bft)
31.10.2014 01:30 1,7 C 96 % 1027,4 hPa 0,0 l/m 0,0 km/h (0 Bft) O-SO 112 1,1 C 1,2 C 0,0 km/h (0 Bft)
31.10.2014 01:35 1,8 C 97 % 1027,4 hPa 0,0 l/m 0,0 km/h (0 Bft) SO 135 1,4 C 1,1 C 0,0 km/h (0 Bft)
31.10.2014 01:40 1,8 C 97 % 1027,2 hPa 0,0 l/m 0,0 km/h (0 Bft) SO 135 1,4 C 1,2 C 0,0 km/h (0 Bft)
31.10.2014 01:45 1,9 C 97 % 1027,2 hPa 0,0 l/m 0,0 km/h (0 Bft) S 180 1,5 C 1,3 C 0,0 km/h (0 Bft)
31.10.2014 01:50 1,8 C 97 % 1027,2 hPa 0,0 l/m 0,0 km/h (0 Bft) O-SO 112 1,4 C 1,3 C 0,0 km/h (0 Bft)
31.10.2014 01:55 1,6 C 97 % 1027,2 hPa 0,0 l/m 0,0 km/h (0 Bft) O-SO 112 1,2 C 1,3 C 0,0 km/h (0 Bft)
31.10.2014 02:00 2,1 C 96 % 1027,2 hPa 0,0 l/m 0,2 km/h (0 Bft) SO 135 1,5 C 1,2 C 1,6 km/h (1 Bft)
31.10.2014 02:05 2,0 C 96 % 1027,2 hPa 0,0 l/m 0,3 km/h (0 Bft) SO 135 1,4 C 1,4 C 0,0 km/h (0 Bft)
31.10.2014 02:10 1,9 C 97 % 1027,2 hPa 0,0 l/m 0,2 km/h (0 Bft) SO 135 1,5 C 1,4 C 0,0 km/h (0 Bft)
31.10.2014 02:15 1,6 C 97 % 1027,2 hPa 0,0 l/m 0,0 km/h (0 Bft) SO 135 1,2 C 1,3 C 0,0 km/h (0 Bft)
31.10.2014 02:20 1,7 C 97 % 1027,4 hPa 0,0 l/m 0,0 km/h (0 Bft) S-SO 157 1,3 C 1,3 C 0,0 km/h (0 Bft)
31.10.2014 02:25 2,0 C 96 % 1027,4 hPa 0,0 l/m 0,0 km/h (0 Bft) SO 135 1,4 C 1,5 C 0,0 km/h (0 Bft)
31.10.2014 02:30 1,9 C 97 % 1027,4 hPa 0,0 l/m 0,0 km/h (0 Bft) SO 135 1,5 C 1,5 C 0,0 km/h (0 Bft)
31.10.2014 02:35 2,2 C 96 % 1027,4 hPa 0,0 l/m 0,0 km/h (0 Bft) SO 135 1,6 C 1,6 C 0,0 km/h (0 Bft)
31.10.2014 02:40 1,9 C 97 % 1027,3 hPa 0,0 l/m 0,0 km/h (0 Bft) O-SO 112 1,5 C 1,5 C 0,0 km/h (0 Bft)
31.10.2014 02:45 1,9 C 97 % 1027,3 hPa 0,0 l/m 0,0 km/h (0 Bft) SO 135 1,5 C 1,3 C 0,0 km/h (0 Bft)
31.10.2014 02:50 1,7 C 97 % 1027,3 hPa 0,0 l/m 0,0 km/h (0 Bft) S 180 1,3 C 1,2 C 0,0 km/h (0 Bft)
31.10.2014 02:55 1,8 C 97 % 1027,3 hPa 0,0 l/m 0,0 km/h (0 Bft) SO 135 1,4 C 1,1 C 0,0 km/h (0 Bft)
31.10.2014 03:00 2,0 C 96 % 1027,3 hPa 0,0 l/m 0,0 km/h (0 Bft) SO 135 1,4 C 1,2 C 0,0 km/h (0 Bft)
31.10.2014 03:05 2,1 C 96 % 1027,3 hPa 0,0 l/m 0,2 km/h (0 Bft) S-SO 157 1,5 C 1,3 C 2,4 km/h (1 Bft)
31.10.2014 03:10 1,9 C 97 % 1027,3 hPa 0,0 l/m 0,0 km/h (0 Bft) SO 135 1,5 C 1,3 C 0,0 km/h (0 Bft)
31.10.2014 03:15 2,7 C 97 % 1027,3 hPa 0,0 l/m 0,5 km/h (0 Bft) SW 225 2,3 C 1,4 C 3,4 km/h (1 Bft)
31.10.2014 03:20 2,3 C 97 % 1027,2 hPa 0,0 l/m 0,5 km/h (0 Bft) SO 135 1,9 C 1,4 C 0,0 km/h (0 Bft)
31.10.2014 03:25 1,7 C 97 % 1027,2 hPa 0,0 l/m 0,0 km/h (0 Bft) SO 135 1,3 C 1,3 C 0,0 km/h (0 Bft)
31.10.2014 03:30 1,5 C 97 % 1027,2 hPa 0,0 l/m 0,0 km/h (0 Bft) SO 135 1,1 C 1,1 C 0,0 km/h (0 Bft)
31.10.2014 03:35 2,1 C 97 % 1027,2 hPa 0,0 l/m 0,0 km/h (0 Bft) SO 135 1,7 C 1,1 C 0,0 km/h (0 Bft)
31.10.2014 03:40 1,9 C 97 % 1027,2 hPa 0,0 l/m 0,0 km/h (0 Bft) SO 135 1,5 C 1,2 C 0,0 km/h (0 Bft)
31.10.2014 03:45 1,7 C 97 % 1027,2 hPa 0,0 l/m 0,0 km/h (0 Bft) O-SO 112 1,3 C 1,1 C 0,0 km/h (0 Bft)
31.10.2014 03:50 1,9 C 97 % 1027,2 hPa 0,0 l/m 0,2 km/h (0 Bft) O-SO 112 1,5 C 1,2 C 1,6 km/h (1 Bft)
31.10.2014 03:55 2,1 C 97 % 1027,2 hPa 0,0 l/m 0,3 km/h (0 Bft) SO 135 1,7 C 1,2 C 0,0 km/h (0 Bft)
31.10.2014 04:00 1,7 C 97 % 1027,0 hPa 0,0 l/m 0,3 km/h (0 Bft) O 90 1,3 C 1,2 C 0,0 km/h (0 Bft)
31.10.2014 04:05 1,2 C 97 % 1027,0 hPa 0,0 l/m 0,0 km/h (0 Bft) O 90 0,8 C 0,9 C 0,0 km/h (0 Bft)
31.10.2014 04:10 1,3 C 97 % 1027,0 hPa 0,0 l/m 0,0 km/h (0 Bft) O 90 0,9 C 0,7 C 0,0 km/h (0 Bft)
31.10.2014 04:13 1,3 C 97 % 1027,0 hPa 0,0 l/m 0,0 km/h (0 Bft) SO 135 0,9 C 0,7 C 0,0 km/h (0 Bft)
31.10.2014 04:15 1,3 C 97 % 1027,0 hPa 0,0 l/m 0,0 km/h (0 Bft) SO 135 0,9 C 0,7 C 0,0 km/h (0 Bft)
31.10.2014 04:20 1,1 C 97 % 1026,9 hPa 0,0 l/m 0,0 km/h (0 Bft) SO 135 0,7 C 0,7 C 0,0 km/h (0 Bft)
31.10.2014 04:25 1,1 C 97 % 1026,9 hPa 0,0 l/m 0,0 km/h (0 Bft) SO 135 0,7 C 0,6 C 0,0 km/h (0 Bft)
31.10.2014 04:30 1,3 C 97 % 1026,9 hPa 0,0 l/m 0,0 km/h (0 Bft) SO 135 0,9 C 0,7 C 0,0 km/h (0 Bft)
31.10.2014 04:35 1,4 C 97 % 1026,9 hPa 0,0 l/m 0,0 km/h (0 Bft) O-SO 112 1,0 C 0,8 C 0,0 km/h (0 Bft)
31.10.2014 04:40 1,1 C 97 % 1027,0 hPa 0,0 l/m 0,0 km/h (0 Bft) O-SO 112 0,7 C 0,9 C 0,0 km/h (0 Bft)
31.10.2014 04:45 1,2 C 97 % 1027,0 hPa 0,0 l/m 0,0 km/h (0 Bft) O-SO 112 0,8 C 0,7 C 0,0 km/h (0 Bft)
31.10.2014 04:50 1,1 C 97 % 1027,0 hPa 0,0 l/m 0,0 km/h (0 Bft) O-SO 112 0,7 C 0,8 C 0,0 km/h (0 Bft)
31.10.2014 04:55 1,1 C 97 % 1027,0 hPa 0,0 l/m 0,0 km/h (0 Bft) S-SO 157 0,7 C 0,8 C 0,0 km/h (0 Bft)
31.10.2014 05:00 1,4 C 97 % 1027,2 hPa 0,0 l/m 0,0 km/h (0 Bft) SO 135 1,0 C 0,8 C 0,0 km/h (0 Bft)
31.10.2014 05:05 1,4 C 97 % 1027,2 hPa 0,0 l/m 0,0 km/h (0 Bft) SO 135 1,0 C 0,9 C 0,0 km/h (0 Bft)
31.10.2014 05:10 1,6 C 97 % 1027,2 hPa 0,0 l/m 0,0 km/h (0 Bft) SO 135 1,2 C 1,0 C 0,0 km/h (0 Bft)
31.10.2014 05:15 1,7 C 97 % 1027,2 hPa 0,0 l/m 0,0 km/h (0 Bft) S-SO 157 1,3 C 1,0 C 0,0 km/h (0 Bft)
31.10.2014 05:20 1,6 C 97 % 1027,6 hPa 0,0 l/m 0,0 km/h (0 Bft) S-SO 157 1,2 C 1,0 C 0,0 km/h (0 Bft)
31.10.2014 05:25 1,1 C 97 % 1027,6 hPa 0,0 l/m 0,0 km/h (0 Bft) S-SO 157 0,7 C 0,8 C 0,0 km/h (0 Bft)
31.10.2014 05:30 1,2 C 97 % 1027,6 hPa 0,0 l/m 0,0 km/h (0 Bft) SO 135 0,8 C 0,7 C 0,0 km/h (0 Bft)
31.10.2014 05:35 1,2 C 97 % 1027,6 hPa 0,0 l/m 0,0 km/h (0 Bft) SO 135 0,8 C 0,9 C 0,0 km/h (0 Bft)
31.10.2014 05:40 1,4 C 97 % 1027,9 hPa 0,0 l/m 0,0 km/h (0 Bft) SO 135 1,0 C 0,9 C 1,6 km/h (1 Bft)
31.10.2014 05:45 1,8 C 97 % 1027,9 hPa 0,0 l/m 0,3 km/h (0 Bft) S 180 1,4 C 1,1 C 0,0 km/h (0 Bft)
31.10.2014 05:50 1,6 C 97 % 1027,9 hPa 0,0 l/m 0,8 km/h (0 Bft) NW 315 1,2 C 1,4 C 0,0 km/h (0 Bft)
31.10.2014 05:55 1,8 C 97 % 1027,9 hPa 0,0 l/m 0,5 km/h (0 Bft) S-SO 157 1,4 C 1,3 C 0,0 km/h (0 Bft)
31.10.2014 06:00 1,7 C 97 % 1027,6 hPa 0,0 l/m 0,2 km/h (0 Bft) SO 135 1,3 C 1,3 C 0,0 km/h (0 Bft)
31.10.2014 06:05 1,4 C 97 % 1027,6 hPa 0,0 l/m 0,0 km/h (0 Bft) S-SO 157 1,0 C 1,2 C 0,0 km/h (0 Bft)
31.10.2014 06:10 1,4 C 97 % 1027,6 hPa 0,0 l/m 0,0 km/h (0 Bft) SO 135 1,0 C 1,0 C 0,0 km/h (0 Bft)
31.10.2014 06:15 1,2 C 97 % 1027,6 hPa 0,0 l/m 0,0 km/h (0 Bft) SO 135 0,8 C 1,0 C 0,0 km/h (0 Bft)
31.10.2014 06:20 1,2 C 97 % 1027,4 hPa 0,0 l/m 0,0 km/h (0 Bft) O 90 0,8 C 1,0 C 0,0 km/h (0 Bft)
31.10.2014 06:25 1,9 C 97 % 1027,4 hPa 0,0 l/m 0,3 km/h (0 Bft) SO 135 1,5 C 1,0 C 0,0 km/h (0 Bft)
31.10.2014 06:30 1,8 C 97 % 1027,4 hPa 0,0 l/m 0,3 km/h (0 Bft) O-SO 112 1,4 C 1,0 C 0,0 km/h (0 Bft)
31.10.2014 06:35 1,7 C 97 % 1027,4 hPa 0,0 l/m 0,0 km/h (0 Bft) SO 135 1,3 C 1,1 C 0,0 km/h (0 Bft)
31.10.2014 06:40 1,9 C 97 % 1027,3 hPa 0,0 l/m 0,3 km/h (0 Bft) SO 135 1,5 C 1,1 C 2,6 km/h (1 Bft)
31.10.2014 06:45 1,6 C 97 % 1027,3 hPa 0,0 l/m 0,3 km/h (0 Bft) SO 135 1,2 C 1,3 C 0,0 km/h (0 Bft)
31.10.2014 06:50 1,6 C 97 % 1027,3 hPa 0,0 l/m 0,2 km/h (0 Bft) S-SO 157 1,2 C 1,3 C 0,0 km/h (0 Bft)
31.10.2014 06:55 1,6 C 97 % 1027,3 hPa 0,0 l/m 0,5 km/h (0 Bft) W-SW 247 1,2 C 1,2 C 1,8 km/h (1 Bft)
31.10.2014 07:00 1,6 C 97 % 1027,4 hPa 0,0 l/m 0,5 km/h (0 Bft) W 270 1,2 C 1,2 C 0,0 km/h (0 Bft)
31.10.2014 07:05 1,5 C 97 % 1027,4 hPa 0,0 l/m 0,2 km/h (0 Bft) SW 225 1,1 C 1,4 C 0,0 km/h (0 Bft)
31.10.2014 07:10 1,4 C 97 % 1027,4 hPa 0,0 l/m 0,0 km/h (0 Bft) SW 225 1,0 C 1,4 C 0,0 km/h (0 Bft)
31.10.2014 07:15 1,4 C 97 % 1027,4 hPa 0,0 l/m 0,2 km/h (0 Bft) S 180 1,0 C 1,4 C 2,4 km/h (1 Bft)
31.10.2014 07:20 2,0 C 97 % 1027,6 hPa 0,0 l/m 0,2 km/h (0 Bft) S 180 1,6 C 1,5 C 0,0 km/h (0 Bft)
31.10.2014 07:25 1,7 C 97 % 1027,6 hPa 0,0 l/m 0,2 km/h (0 Bft) S 180 1,3 C 1,7 C 0,0 km/h (0 Bft)
31.10.2014 07:30 1,7 C 97 % 1027,6 hPa 0,0 l/m 0,0 km/h (0 Bft) O-SO 112 1,3 C 1,6 C 0,0 km/h (0 Bft)
31.10.2014 07:35 2,0 C 97 % 1027,6 hPa 0,0 l/m 0,3 km/h (0 Bft) S-SO 157 1,6 C 1,6 C 0,0 km/h (0 Bft)
31.10.2014 07:40 2,0 C 97 % 1027,6 hPa 0,0 l/m 0,3 km/h (0 Bft) SO 135 1,6 C 1,8 C 0,0 km/h (0 Bft)
31.10.2014 07:45 1,9 C 97 % 1027,6 hPa 0,0 l/m 0,0 km/h (0 Bft) O-SO 112 1,5 C 1,9 C 0,0 km/h (0 Bft)
31.10.2014 07:50 1,9 C 97 % 1027,6 hPa 0,0 l/m 0,0 km/h (0 Bft) O 90 1,5 C 1,9 C 0,0 km/h (0 Bft)
31.10.2014 07:55 2,3 C 97 % 1027,6 hPa 0,0 l/m 0,0 km/h (0 Bft) S 180 1,9 C 1,9 C 0,0 km/h (0 Bft)
31.10.2014 08:00 2,4 C 97 % 1027,4 hPa 0,0 l/m 0,3 km/h (0 Bft) S-SW 202 2,0 C 2,1 C 0,0 km/h (0 Bft)
31.10.2014 08:05 2,3 C 97 % 1027,4 hPa 0,0 l/m 0,3 km/h (0 Bft) NW 315 1,9 C 2,3 C 0,0 km/h (0 Bft)
31.10.2014 08:10 2,5 C 97 % 1027,4 hPa 0,0 l/m 0,0 km/h (0 Bft) SO 135 2,1 C 2,2 C 0,0 km/h (0 Bft)
31.10.2014 08:15 2,9 C 97 % 1027,4 hPa 0,0 l/m 0,3 km/h (0 Bft) N-NW 337 2,5 C 2,4 C 0,0 km/h (0 Bft)
31.10.2014 08:20 3,2 C 96 % 1027,8 hPa 0,0 l/m 0,6 km/h (0 Bft) S 180 2,6 C 2,7 C 0,0 km/h (0 Bft)
31.10.2014 08:25 3,5 C 96 % 1027,8 hPa 0,0 l/m 0,3 km/h (0 Bft) O-NO 67 2,9 C 3,1 C 0,0 km/h (0 Bft)
31.10.2014 08:30 3,4 C 96 % 1027,8 hPa 0,0 l/m 0,2 km/h (0 Bft) SO 135 2,8 C 3,3 C 0,0 km/h (0 Bft)
31.10.2014 08:35 3,6 C 96 % 1027,8 hPa 0,0 l/m 0,0 km/h (0 Bft) SO 135 3,0 C 3,5 C 0,0 km/h (0 Bft)
31.10.2014 08:40 3,6 C 96 % 1027,5 hPa 0,0 l/m 0,0 km/h (0 Bft) S-SO 157 3,0 C 3,6 C 0,0 km/h (0 Bft)
31.10.2014 08:45 3,8 C 97 % 1027,5 hPa 0,0 l/m 0,3 km/h (0 Bft) SO 135 3,4 C 3,8 C 1,8 km/h (1 Bft)
31.10.2014 08:50 3,9 C 96 % 1027,5 hPa 0,0 l/m 0,3 km/h (0 Bft) SO 135 3,3 C 3,9 C 0,0 km/h (0 Bft)
31.10.2014 08:55 4,1 C 96 % 1027,5 hPa 0,0 l/m 0,2 km/h (0 Bft) SO 135 3,5 C 4,1 C 2,3 km/h (1 Bft)
31.10.2014 09:00 4,3 C 96 % 1027,4 hPa 0,0 l/m 0,2 km/h (0 Bft) S-SO 157 3,7 C 4,3 C 0,0 km/h (0 Bft)
31.10.2014 09:05 4,5 C 96 % 1027,4 hPa 0,0 l/m 0,2 km/h (0 Bft) S-SO 157 3,9 C 4,8 C 0,0 km/h (0 Bft)
31.10.2014 09:10 4,8 C 96 % 1027,4 hPa 0,0 l/m 0,0 km/h (0 Bft) S-SO 157 4,2 C 5,0 C 0,0 km/h (0 Bft)
31.10.2014 09:15 5,2 C 96 % 1027,4 hPa 0,0 l/m 0,2 km/h (0 Bft) SO 135 4,6 C 5,3 C 0,0 km/h (0 Bft)
31.10.2014 09:20 5,2 C 96 % 1027,7 hPa 0,0 l/m 0,0 km/h (0 Bft) S-SO 157 4,6 C 5,9 C 0,0 km/h (0 Bft)
31.10.2014 09:25 5,5 C 96 % 1027,7 hPa 0,0 l/m 0,3 km/h (0 Bft) SO 135 4,9 C 7,0 C 1,6 km/h (1 Bft)
31.10.2014 09:30 5,5 C 96 % 1027,7 hPa 0,0 l/m 0,8 km/h (0 Bft) SO 135 4,9 C 7,9 C 0,0 km/h (0 Bft)
31.10.2014 09:35 6,0 C 95 % 1027,7 hPa 0,0 l/m 0,8 km/h (0 Bft) S 180 5,3 C 9,0 C 0,0 km/h (0 Bft)
31.10.2014 09:40 6,1 C 95 % 1027,6 hPa 0,0 l/m 0,2 km/h (0 Bft) S 180 5,4 C 10,5 C 0,0 km/h (0 Bft)
31.10.2014 09:45 6,4 C 95 % 1027,6 hPa 0,0 l/m 0,5 km/h (0 Bft) S-SO 157 5,7 C 12,5 C 2,4 km/h (1 Bft)
31.10.2014 09:50 6,5 C 95 % 1027,6 hPa 0,0 l/m 1,0 km/h (0 Bft) O-SO 112 5,8 C 13,1 C 0,0 km/h (0 Bft)
31.10.2014 09:55 6,7 C 95 % 1027,6 hPa 0,0 l/m 0,6 km/h (0 Bft) S-SO 157 6,0 C 14,3 C 0,0 km/h (0 Bft)
31.10.2014 10:00 6,9 C 96 % 1027,7 hPa 0,0 l/m 0,2 km/h (0 Bft) O-SO 112 6,3 C 15,3 C 0,0 km/h (0 Bft)
31.10.2014 10:05 7,4 C 95 % 1027,7 hPa 0,0 l/m 0,3 km/h (0 Bft) S-SO 157 6,7 C 15,8 C 1,8 km/h (1 Bft)
31.10.2014 10:08 7,8 C 95 % 1027,7 hPa 0,0 l/m 1,0 km/h (0 Bft) S-SO 157 7,0 C 16,1 C 0,0 km/h (0 Bft)
31.10.2014 10:10 7,8 C 95 % 1027,7 hPa 0,0 l/m 1,0 km/h (0 Bft) S-SO 157 7,0 C 16,1 C 0,0 km/h (0 Bft)
31.10.2014 10:15 8,3 C 95 % 1027,7 hPa 0,0 l/m 0,6 km/h (0 Bft) SO 135 7,5 C 17,3 C 1,9 km/h (1 Bft)
31.10.2014 10:20 8,6 C 95 % 1028,0 hPa 0,0 l/m 0,3 km/h (0 Bft) O-SO 112 7,8 C 17,8 C 0,0 km/h (0 Bft)
31.10.2014 10:25 9,1 C 95 % 1028,0 hPa 0,0 l/m 0,3 km/h (0 Bft) S-SO 157 8,3 C 19,0 C 0,0 km/h (0 Bft)
31.10.2014 10:30 9,6 C 95 % 1028,0 hPa 0,0 l/m 0,0 km/h (0 Bft) S-SO 157 8,8 C 20,0 C 0,0 km/h (0 Bft)
31.10.2014 10:35 10,5 C 94 % 1028,0 hPa 0,0 l/m 0,0 km/h (0 Bft) SO 135 9,6 C 20,1 C 0,0 km/h (0 Bft)
31.10.2014 10:40 10,9 C 94 % 1028,3 hPa 0,0 l/m 0,0 km/h (0 Bft) O-SO 112 10,0 C 19,5 C 0,0 km/h (0 Bft)
31.10.2014 10:45 11,7 C 93 % 1028,3 hPa 0,0 l/m 0,0 km/h (0 Bft) S 180 10,6 C 19,9 C 0,0 km/h (0 Bft)
31.10.2014 10:50 11,8 C 93 % 1028,3 hPa 0,0 l/m 0,0 km/h (0 Bft) S-SO 157 10,7 C 20,2 C 0,0 km/h (0 Bft)
31.10.2014 10:55 12,5 C 92 % 1028,3 hPa 0,0 l/m 0,0 km/h (0 Bft) O-SO 112 11,2 C 20,3 C 0,0 km/h (0 Bft)
31.10.2014 11:00 12,5 C 91 % 1028,5 hPa 0,0 l/m 0,0 km/h (0 Bft) O-SO 112 11,1 C 20,0 C 0,0 km/h (0 Bft)
31.10.2014 11:05 13,0 C 88 % 1028,5 hPa 0,0 l/m 0,0 km/h (0 Bft) S-SO 157 11,1 C 20,6 C 0,0 km/h (0 Bft)
31.10.2014 11:10 13,1 C 85 % 1028,5 hPa 0,0 l/m 0,0 km/h (0 Bft) SO 135 10,6 C 21,1 C 0,0 km/h (0 Bft)
31.10.2014 11:15 14,0 C 87 % 1028,5 hPa 0,0 l/m 0,0 km/h (0 Bft) SW 225 11,9 C 20,4 C 0,0 km/h (0 Bft)
31.10.2014 11:20 14,3 C 88 % 1028,8 hPa 0,0 l/m 0,0 km/h (0 Bft) W-SW 247 12,3 C 20,1 C 0,0 km/h (0 Bft)
31.10.2014 11:25 14,6 C 87 % 1028,8 hPa 0,0 l/m 0,0 km/h (0 Bft) S-SO 157 12,5 C 20,3 C 0,0 km/h (0 Bft)
31.10.2014 11:30 15,0 C 85 % 1028,8 hPa 0,0 l/m 0,0 km/h (0 Bft) N-NW 337 12,5 C 20,4 C 0,0 km/h (0 Bft)
31.10.2014 11:35 15,2 C 82 % 1028,8 hPa 0,0 l/m 1,1 km/h (1 Bft) N-NO 22 12,1 C 19,8 C 4,3 km/h (1 Bft)
31.10.2014 11:40 15,1 C 73 % 1028,9 hPa 0,0 l/m 1,9 km/h (1 Bft) O-NO 67 10,3 C 19,2 C 2,1 km/h (1 Bft)
31.10.2014 11:45 15,8 C 78 % 1028,9 hPa 0,0 l/m 1,1 km/h (1 Bft) NW 315 12,0 C 19,0 C 2,4 km/h (1 Bft)
31.10.2014 11:50 15,8 C 74 % 1028,9 hPa 0,0 l/m 1,0 km/h (0 Bft) O-SO 112 11,2 C 18,8 C 2,6 km/h (1 Bft)
31.10.2014 11:55 15,2 C 69 % 1028,9 hPa 0,0 l/m 2,4 km/h (1 Bft) O-NO 67 9,6 C 18,2 C 7,7 km/h (2 Bft)
31.10.2014 12:00 15,2 C 72 % 1028,6 hPa 0,0 l/m 2,7 km/h (1 Bft) O-NO 67 10,2 C 17,8 C 1,9 km/h (1 Bft)
31.10.2014 12:05 15,3 C 69 % 1028,6 hPa 0,0 l/m 2,6 km/h (1 Bft) NO 45 9,6 C 17,5 C 5,5 km/h (1 Bft)
31.10.2014 12:10 15,4 C 69 % 1028,6 hPa 0,0 l/m 2,7 km/h (1 Bft) N 360 9,7 C 17,4 C 3,2 km/h (1 Bft)
31.10.2014 12:15 15,7 C 68 % 1028,6 hPa 0,0 l/m 2,9 km/h (1 Bft) O-NO 67 9,8 C 17,4 C 3,7 km/h (1 Bft)
31.10.2014 12:20 15,6 C 71 % 1028,4 hPa 0,0 l/m 2,7 km/h (1 Bft) N-NO 22 10,4 C 17,5 C 2,9 km/h (1 Bft)
31.10.2014 12:25 15,7 C 69 % 1028,4 hPa 0,0 l/m 3,1 km/h (1 Bft) O-NO 67 10,0 C 17,4 C 3,4 km/h (1 Bft)
31.10.2014 12:30 15,9 C 66 % 1028,4 hPa 0,0 l/m 3,1 km/h (1 Bft) O 90 9,6 C 17,5 C 4,5 km/h (1 Bft)
31.10.2014 12:35 15,8 C 63 % 1028,4 hPa 0,0 l/m 3,1 km/h (1 Bft) O 90 8,8 C 17,5 C 4,8 km/h (1 Bft)
31.10.2014 12:40 15,6 C 66 % 1028,3 hPa 0,0 l/m 3,1 km/h (1 Bft) NO 45 9,3 C 17,5 C 6,4 km/h (2 Bft)
31.10.2014 12:45 15,7 C 62 % 1028,3 hPa 0,0 l/m 3,2 km/h (1 Bft) O 90 8,4 C 17,3 C 4,8 km/h (1 Bft)
31.10.2014 12:50 15,7 C 64 % 1028,3 hPa 0,0 l/m 3,5 km/h (1 Bft) O 90 8,9 C 17,2 C 3,2 km/h (1 Bft)
31.10.2014 12:55 15,7 C 62 % 1028,3 hPa 0,0 l/m 4,0 km/h (1 Bft) NO 45 8,4 C 17,0 C 6,0 km/h (2 Bft)
31.10.2014 13:00 15,6 C 63 % 1028,2 hPa 0,0 l/m 4,0 km/h (1 Bft) O-NO 67 8,6 C 16,9 C 4,3 km/h (1 Bft)
31.10.2014 13:05 15,7 C 62 % 1028,2 hPa 0,0 l/m 3,2 km/h (1 Bft) NO 45 8,4 C 17,0 C 4,2 km/h (1 Bft)
31.10.2014 13:08 15,6 C 62 % 1028,2 hPa 0,0 l/m 3,2 km/h (1 Bft) N-NO 22 8,3 C 16,8 C 2,7 km/h (1 Bft)
31.10.2014 13:10 15,6 C 62 % 1028,2 hPa 0,0 l/m 3,2 km/h (1 Bft) N-NO 22 8,3 C 16,8 C 2,7 km/h (1 Bft)
31.10.2014 13:15 15,4 C 61 % 1028,2 hPa 0,0 l/m 3,1 km/h (1 Bft) O 90 7,9 C 16,9 C 2,7 km/h (1 Bft)
31.10.2014 13:20 15,5 C 61 % 1028,1 hPa 0,0 l/m 2,7 km/h (1 Bft) NO 45 8,0 C 16,8 C 6,1 km/h (2 Bft)
31.10.2014 13:25 15,6 C 62 % 1028,1 hPa 0,0 l/m 2,7 km/h (1 Bft) NO 45 8,3 C 16,8 C 3,5 km/h (1 Bft)
31.10.2014 13:30 15,5 C 59 % 1028,1 hPa 0,0 l/m 2,7 km/h (1 Bft) O 90 7,5 C 16,9 C 5,8 km/h (2 Bft)
31.10.2014 13:35 15,4 C 60 % 1028,1 hPa 0,0 l/m 2,9 km/h (1 Bft) O-NO 67 7,7 C 16,8 C 3,4 km/h (1 Bft)
31.10.2014 13:40 15,5 C 61 % 1027,9 hPa 0,0 l/m 3,1 km/h (1 Bft) N-NO 22 8,0 C 16,6 C 4,5 km/h (1 Bft)
31.10.2014 13:45 15,4 C 60 % 1027,9 hPa 0,0 l/m 2,3 km/h (1 Bft) O-NO 67 7,7 C 16,6 C 3,9 km/h (1 Bft)
31.10.2014 13:50 15,4 C 59 % 1027,9 hPa 0,0 l/m 2,4 km/h (1 Bft) O-NO 67 7,4 C 16,6 C 4,8 km/h (1 Bft)
31.10.2014 13:55 15,2 C 60 % 1027,9 hPa 0,0 l/m 3,1 km/h (1 Bft) N-NO 22 7,5 C 16,4 C 1,8 km/h (1 Bft)
31.10.2014 14:00 15,3 C 61 % 1027,8 hPa 0,0 l/m 3,2 km/h (1 Bft) O-NO 67 7,8 C 16,5 C 3,1 km/h (1 Bft)
31.10.2014 14:05 15,5 C 59 % 1027,8 hPa 0,0 l/m 2,6 km/h (1 Bft) O-SO 112 7,5 C 16,6 C 3,4 km/h (1 Bft)
31.10.2014 14:10 15,5 C 59 % 1027,8 hPa 0,0 l/m 2,4 km/h (1 Bft) SO 135 7,5 C 16,7 C 3,9 km/h (1 Bft)
31.10.2014 14:15 15,5 C 61 % 1027,8 hPa 0,0 l/m 1,9 km/h (1 Bft) O 90 8,0 C 16,9 C 2,9 km/h (1 Bft)
31.10.2014 14:20 15,4 C 59 % 1027,8 hPa 0,0 l/m 1,6 km/h (1 Bft) O-NO 67 7,4 C 17,0 C 2,9 km/h (1 Bft)
31.10.2014 14:25 15,2 C 59 % 1027,8 hPa 0,0 l/m 2,1 km/h (1 Bft) O-NO 67 7,2 C 16,9 C 2,3 km/h (1 Bft)
31.10.2014 14:30 15,2 C 60 % 1027,8 hPa 0,0 l/m 2,1 km/h (1 Bft) NO 45 7,5 C 16,8 C 0,0 km/h (0 Bft)
31.10.2014 14:35 15,3 C 59 % 1027,8 hPa 0,0 l/m 1,8 km/h (1 Bft) O-NO 67 7,3 C 16,9 C 2,6 km/h (1 Bft)
31.10.2014 14:40 15,1 C 61 % 1027,4 hPa 0,0 l/m 1,4 km/h (1 Bft) NO 45 7,6 C 16,9 C 2,6 km/h (1 Bft)
31.10.2014 14:45 15,2 C 63 % 1027,4 hPa 0,0 l/m 0,6 km/h (0 Bft) O 90 8,2 C 16,5 C 0,0 km/h (0 Bft)
31.10.2014 14:50 15,7 C 63 % 1027,4 hPa 0,0 l/m 0,5 km/h (0 Bft) O 90 8,7 C 16,4 C 0,0 km/h (0 Bft)
31.10.2014 14:55 15,6 C 60 % 1027,4 hPa 0,0 l/m 1,0 km/h (0 Bft) NO 45 7,9 C 16,3 C 2,3 km/h (1 Bft)
31.10.2014 15:00 15,1 C 58 % 1027,2 hPa 0,0 l/m 1,3 km/h (1 Bft) SO 135 6,9 C 16,0 C 0,0 km/h (0 Bft)
31.10.2014 15:05 14,9 C 60 % 1027,2 hPa 0,0 l/m 0,8 km/h (0 Bft) O-SO 112 7,2 C 15,6 C 0,0 km/h (0 Bft)
31.10.2014 15:10 14,9 C 62 % 1027,2 hPa 0,0 l/m 0,0 km/h (0 Bft) O-SO 112 7,7 C 15,4 C 0,0 km/h (0 Bft)
31.10.2014 15:15 14,7 C 62 % 1027,2 hPa 0,0 l/m 0,0 km/h (0 Bft) SO 135 7,5 C 15,2 C 0,0 km/h (0 Bft)
31.10.2014 15:20 14,3 C 63 % 1027,3 hPa 0,0 l/m 0,0 km/h (0 Bft) SO 135 7,4 C 15,1 C 0,0 km/h (0 Bft)
31.10.2014 15:25 14,0 C 64 % 1027,3 hPa 0,0 l/m 0,0 km/h (0 Bft) SO 135 7,3 C 15,1 C 0,0 km/h (0 Bft)
31.10.2014 15:30 13,8 C 65 % 1027,3 hPa 0,0 l/m 0,0 km/h (0 Bft) SO 135 7,3 C 15,1 C 0,0 km/h (0 Bft)
31.10.2014 15:35 13,4 C 66 % 1027,3 hPa 0,0 l/m 0,0 km/h (0 Bft) SO 135 7,2 C 14,8 C 1,6 km/h (1 Bft)
31.10.2014 15:40 13,4 C 67 % 1027,2 hPa 0,0 l/m 0,2 km/h (0 Bft) O-SO 112 7,4 C 14,5 C 0,0 km/h (0 Bft)
31.10.2014 15:45 13,1 C 68 % 1027,2 hPa 0,0 l/m 0,2 km/h (0 Bft) O-SO 112 7,3 C 14,2 C 0,0 km/h (0 Bft)
31.10.2014 15:50 13,0 C 68 % 1027,2 hPa 0,0 l/m 0,0 km/h (0 Bft) SO 135 7,2 C 14,0 C 0,0 km/h (0 Bft)
31.10.2014 15:55 12,7 C 69 % 1027,2 hPa 0,0 l/m 0,0 km/h (0 Bft) O-SO 112 7,2 C 13,8 C 0,0 km/h (0 Bft)
31.10.2014 16:00 12,5 C 70 % 1027,2 hPa 0,0 l/m 0,0 km/h (0 Bft) SO 135 7,2 C 13,6 C 0,0 km/h (0 Bft)
31.10.2014 16:05 12,2 C 72 % 1027,2 hPa 0,0 l/m 0,0 km/h (0 Bft) SO 135 7,3 C 13,1 C 0,0 km/h (0 Bft)
31.10.2014 16:10 11,9 C 73 % 1027,2 hPa 0,0 l/m 0,0 km/h (0 Bft) SO 135 7,2 C 12,9 C 0,0 km/h (0 Bft)
31.10.2014 16:15 11,8 C 74 % 1027,2 hPa 0,0 l/m 0,0 km/h (0 Bft) SO 135 7,3 C 12,6 C 0,0 km/h (0 Bft)
31.10.2014 16:20 11,7 C 74 % 1027,3 hPa 0,0 l/m 0,0 km/h (0 Bft) SO 135 7,2 C 12,4 C 0,0 km/h (0 Bft)
31.10.2014 16:25 11,4 C 75 % 1027,3 hPa 0,0 l/m 0,0 km/h (0 Bft) SO 135 7,1 C 12,1 C 0,0 km/h (0 Bft)
31.10.2014 16:30 11,1 C 75 % 1027,3 hPa 0,0 l/m 0,0 km/h (0 Bft) SO 135 6,8 C 12,0 C 0,0 km/h (0 Bft)
31.10.2014 16:35 10,8 C 76 % 1027,3 hPa 0,0 l/m 0,0 km/h (0 Bft) SO 135 6,7 C 11,6 C 0,0 km/h (0 Bft)
31.10.2014 16:40 10,6 C 76 % 1027,6 hPa 0,0 l/m 0,0 km/h (0 Bft) SO 135 6,5 C 11,4 C 0,0 km/h (0 Bft)
31.10.2014 16:45 10,4 C 78 % 1027,6 hPa 0,0 l/m 0,0 km/h (0 Bft) S-SO 157 6,7 C 11,1 C 0,0 km/h (0 Bft)
31.10.2014 16:50 10,3 C 78 % 1027,6 hPa 0,0 l/m 0,0 km/h (0 Bft) S 180 6,6 C 10,8 C 0,0 km/h (0 Bft)
31.10.2014 16:55 10,3 C 79 % 1027,6 hPa 0,0 l/m 0,0 km/h (0 Bft) S 180 6,8 C 10,4 C 0,0 km/h (0 Bft)
31.10.2014 17:00 10,1 C 79 % 1027,1 hPa 0,0 l/m 0,2 km/h (0 Bft) S 180 6,6 C 10,1 C 2,3 km/h (1 Bft)
31.10.2014 17:05 9,9 C 80 % 1027,1 hPa 0,0 l/m 0,3 km/h (0 Bft) SO 135 6,6 C 9,6 C 0,0 km/h (0 Bft)
31.10.2014 17:10 9,7 C 80 % 1027,1 hPa 0,0 l/m 0,3 km/h (0 Bft) S-SO 157 6,4 C 9,3 C 0,0 km/h (0 Bft)
31.10.2014 17:15 9,6 C 81 % 1027,1 hPa 0,0 l/m 0,3 km/h (0 Bft) S-SO 157 6,5 C 9,0 C 1,6 km/h (1 Bft)
31.10.2014 17:20 9,5 C 82 % 1027,2 hPa 0,0 l/m 0,3 km/h (0 Bft) O-SO 112 6,6 C 8,7 C 0,0 km/h (0 Bft)
31.10.2014 17:25 9,4 C 82 % 1027,2 hPa 0,0 l/m 0,2 km/h (0 Bft) SO 135 6,5 C 8,5 C 0,0 km/h (0 Bft)
31.10.2014 17:30 9,3 C 83 % 1027,2 hPa 0,0 l/m 0,0 km/h (0 Bft) S-SW 202 6,6 C 8,3 C 0,0 km/h (0 Bft)
31.10.2014 17:35 8,7 C 83 % 1027,2 hPa 0,0 l/m 0,3 km/h (0 Bft) S-SO 157 6,0 C 8,0 C 0,0 km/h (0 Bft)
31.10.2014 17:40 8,2 C 83 % 1027,3 hPa 0,0 l/m 0,3 km/h (0 Bft) S-SO 157 5,5 C 7,9 C 0,0 km/h (0 Bft)
31.10.2014 17:45 8,6 C 84 % 1027,3 hPa 0,0 l/m 0,0 km/h (0 Bft) S 180 6,1 C 7,7 C 0,0 km/h (0 Bft)
31.10.2014 17:50 7,9 C 84 % 1027,3 hPa 0,0 l/m 0,0 km/h (0 Bft) S 180 5,4 C 7,6 C 0,0 km/h (0 Bft)
31.10.2014 17:55 7,8 C 85 % 1027,3 hPa 0,0 l/m 0,0 km/h (0 Bft) S 180 5,4 C 7,3 C 0,0 km/h (0 Bft)
31.10.2014 18:00 8,1 C 85 % 1027,2 hPa 0,0 l/m 0,3 km/h (0 Bft) S-SO 157 5,7 C 7,1 C 1,6 km/h (1 Bft)
31.10.2014 18:05 7,5 C 85 % 1027,2 hPa 0,0 l/m 1,0 km/h (0 Bft) S-SO 157 5,1 C 7,1 C 0,0 km/h (0 Bft)
31.10.2014 18:10 7,8 C 86 % 1027,2 hPa 0,0 l/m 1,0 km/h (0 Bft) S 180 5,6 C 7,0 C 2,6 km/h (1 Bft)
31.10.2014 18:15 7,9 C 87 % 1027,2 hPa 0,0 l/m 0,5 km/h (0 Bft) SO 135 5,9 C 6,9 C 0,0 km/h (0 Bft)
31.10.2014 18:20 7,1 C 86 % 1027,2 hPa 0,0 l/m 0,3 km/h (0 Bft) SO 135 4,9 C 6,8 C 0,0 km/h (0 Bft)
31.10.2014 18:25 7,2 C 87 % 1027,2 hPa 0,0 l/m 0,2 km/h (0 Bft) SW 225 5,2 C 6,6 C 0,0 km/h (0 Bft)
31.10.2014 18:30 6,7 C 87 % 1027,2 hPa 0,0 l/m 0,2 km/h (0 Bft) S-SO 157 4,7 C 6,5 C 0,0 km/h (0 Bft)
31.10.2014 18:35 7,1 C 87 % 1027,2 hPa 0,0 l/m 0,0 km/h (0 Bft) SW 225 5,1 C 6,5 C 0,0 km/h (0 Bft)
31.10.2014 18:40 6,6 C 87 % 1027,2 hPa 0,0 l/m 0,0 km/h (0 Bft) W-SW 247 4,6 C 6,5 C 0,0 km/h (0 Bft)
31.10.2014 18:45 6,4 C 88 % 1027,2 hPa 0,0 l/m 0,0 km/h (0 Bft) SW 225 4,6 C 6,3 C 0,0 km/h (0 Bft)
31.10.2014 18:50 6,5 C 88 % 1027,2 hPa 0,0 l/m 0,0 km/h (0 Bft) SO 135 4,7 C 6,2 C 0,0 km/h (0 Bft)
31.10.2014 18:55 6,3 C 88 % 1027,2 hPa 0,0 l/m 0,0 km/h (0 Bft) SO 135 4,5 C 6,3 C 0,0 km/h (0 Bft)
31.10.2014 19:00 6,1 C 88 % 1027,2 hPa 0,0 l/m 0,0 km/h (0 Bft) SO 135 4,3 C 6,3 C 0,0 km/h (0 Bft)
31.10.2014 19:05 6,0 C 88 % 1027,2 hPa 0,0 l/m 0,0 km/h (0 Bft) W-SW 247 4,2 C 6,2 C 0,0 km/h (0 Bft)
31.10.2014 19:10 6,1 C 88 % 1027,2 hPa 0,0 l/m 0,0 km/h (0 Bft) W-SW 247 4,3 C 6,1 C 0,0 km/h (0 Bft)
31.10.2014 19:15 6,2 C 89 % 1027,2 hPa 0,0 l/m 0,3 km/h (0 Bft) O-NO 67 4,5 C 6,0 C 2,9 km/h (1 Bft)
31.10.2014 19:20 6,2 C 89 % 1027,2 hPa 0,0 l/m 0,5 km/h (0 Bft) SO 135 4,5 C 6,1 C 0,0 km/h (0 Bft)
31.10.2014 19:25 5,9 C 90 % 1027,2 hPa 0,0 l/m 0,5 km/h (0 Bft) O 90 4,4 C 6,0 C 0,0 km/h (0 Bft)
31.10.2014 19:30 6,0 C 89 % 1027,2 hPa 0,0 l/m 0,0 km/h (0 Bft) O-NO 67 4,3 C 6,0 C 0,0 km/h (0 Bft)
31.10.2014 19:35 5,9 C 90 % 1027,2 hPa 0,0 l/m 0,0 km/h (0 Bft) SO 135 4,4 C 6,0 C 0,0 km/h (0 Bft)
31.10.2014 19:40 5,8 C 90 % 1027,1 hPa 0,0 l/m 0,0 km/h (0 Bft) SO 135 4,3 C 5,9 C 0,0 km/h (0 Bft)
31.10.2014 19:45 5,5 C 90 % 1027,1 hPa 0,0 l/m 0,0 km/h (0 Bft) SO 135 4,0 C 5,6 C 0,0 km/h (0 Bft)
31.10.2014 19:50 5,4 C 89 % 1027,1 hPa 0,0 l/m 0,0 km/h (0 Bft) SO 135 3,7 C 5,6 C 0,0 km/h (0 Bft)
31.10.2014 19:55 5,3 C 89 % 1027,1 hPa 0,0 l/m 0,0 km/h (0 Bft) SO 135 3,6 C 5,4 C 0,0 km/h (0 Bft)
31.10.2014 20:00 5,3 C 89 % 1027,0 hPa 0,0 l/m 0,0 km/h (0 Bft) SO 135 3,6 C 5,4 C 0,0 km/h (0 Bft)
31.10.2014 20:05 5,3 C 90 % 1027,0 hPa 0,0 l/m 0,0 km/h (0 Bft) SO 135 3,8 C 5,3 C 0,0 km/h (0 Bft)
31.10.2014 20:10 5,3 C 90 % 1027,0 hPa 0,0 l/m 0,0 km/h (0 Bft) NO 45 3,8 C 5,3 C 0,0 km/h (0 Bft)
31.10.2014 20:15 5,0 C 90 % 1027,0 hPa 0,0 l/m 0,0 km/h (0 Bft) NO 45 3,5 C 5,2 C 0,0 km/h (0 Bft)
31.10.2014 20:20 5,4 C 90 % 1027,1 hPa 0,0 l/m 0,0 km/h (0 Bft) S-SO 157 3,9 C 5,1 C 0,0 km/h (0 Bft)
31.10.2014 20:25 5,3 C 91 % 1027,1 hPa 0,0 l/m 0,2 km/h (0 Bft) SW 225 4,0 C 5,1 C 0,0 km/h (0 Bft)
31.10.2014 20:30 5,3 C 91 % 1027,1 hPa 0,0 l/m 0,2 km/h (0 Bft) NO 45 4,0 C 5,1 C 0,0 km/h (0 Bft)
31.10.2014 20:35 5,0 C 91 % 1027,1 hPa 0,0 l/m 0,0 km/h (0 Bft) O-NO 67 3,7 C 5,1 C 0,0 km/h (0 Bft)
31.10.2014 20:40 5,2 C 91 % 1026,9 hPa 0,0 l/m 0,0 km/h (0 Bft) W-NW 292 3,9 C 5,1 C 0,0 km/h (0 Bft)
31.10.2014 20:45 4,9 C 91 % 1026,9 hPa 0,0 l/m 0,0 km/h (0 Bft) W-NW 292 3,6 C 5,1 C 0,0 km/h (0 Bft)
31.10.2014 20:50 5,1 C 91 % 1026,9 hPa 0,0 l/m 0,0 km/h (0 Bft) O-NO 67 3,8 C 5,1 C 0,0 km/h (0 Bft)
31.10.2014 20:55 4,7 C 91 % 1026,9 hPa 0,0 l/m 0,0 km/h (0 Bft) O 90 3,4 C 5,0 C 0,0 km/h (0 Bft)
31.10.2014 21:00 4,8 C 91 % 1027,1 hPa 0,0 l/m 0,0 km/h (0 Bft) O-NO 67 3,5 C 4,9 C 0,0 km/h (0 Bft)
31.10.2014 21:05 4,9 C 91 % 1027,1 hPa 0,0 l/m 0,0 km/h (0 Bft) S-SO 157 3,6 C 4,8 C 0,0 km/h (0 Bft)
31.10.2014 21:10 5,1 C 91 % 1027,1 hPa 0,0 l/m 0,0 km/h (0 Bft) SO 135 3,8 C 4,8 C 0,0 km/h (0 Bft)
31.10.2014 21:15 4,9 C 92 % 1027,1 hPa 0,0 l/m 0,2 km/h (0 Bft) O-NO 67 3,7 C 4,9 C 0,0 km/h (0 Bft)
31.10.2014 21:20 4,8 C 92 % 1027,0 hPa 0,0 l/m 0,2 km/h (0 Bft) O 90 3,6 C 4,9 C 0,0 km/h (0 Bft)
31.10.2014 21:25 4,7 C 92 % 1027,0 hPa 0,0 l/m 0,0 km/h (0 Bft) O-SO 112 3,5 C 4,8 C 0,0 km/h (0 Bft)
31.10.2014 21:30 4,6 C 92 % 1027,0 hPa 0,0 l/m 0,0 km/h (0 Bft) O-NO 67 3,4 C 4,8 C 0,0 km/h (0 Bft)
31.10.2014 21:35 4,5 C 92 % 1027,0 hPa 0,0 l/m 0,0 km/h (0 Bft) O-NO 67 3,3 C 4,6 C 0,0 km/h (0 Bft)
31.10.2014 21:40 4,8 C 92 % 1026,8 hPa 0,0 l/m 0,0 km/h (0 Bft) SO 135 3,6 C 4,5 C 0,0 km/h (0 Bft)
31.10.2014 21:45 5,2 C 92 % 1026,8 hPa 0,0 l/m 0,2 km/h (0 Bft) SO 135 4,0 C 4,5 C 2,3 km/h (1 Bft)
31.10.2014 21:50 5,2 C 93 % 1026,8 hPa 0,0 l/m 0,3 km/h (0 Bft) SO 135 4,2 C 4,6 C 0,0 km/h (0 Bft)
31.10.2014 21:55 4,8 C 93 % 1026,8 hPa 0,0 l/m 0,2 km/h (0 Bft) O-SO 112 3,8 C 4,6 C 0,0 km/h (0 Bft)
31.10.2014 22:00 4,7 C 93 % 1026,7 hPa 0,0 l/m 0,0 km/h (0 Bft) O-SO 112 3,7 C 4,5 C 0,0 km/h (0 Bft)
31.10.2014 22:03 4,5 C 93 % 1026,7 hPa 0,0 l/m 0,0 km/h (0 Bft) SO 135 3,5 C 4,5 C 0,0 km/h (0 Bft)
31.10.2014 22:10 4,6 C 93 % 1026,7 hPa 0,0 l/m 0,0 km/h (0 Bft) SO 135 3,6 C 4,4 C 0,0 km/h (0 Bft)
31.10.2014 22:15 5,1 C 93 % 1026,7 hPa 0,0 l/m 0,5 km/h (0 Bft) O-SO 112 4,1 C 4,6 C 1,8 km/h (1 Bft)
31.10.2014 22:20 5,3 C 93 % 1026,9 hPa 0,0 l/m 0,6 km/h (0 Bft) S-SO 157 4,3 C 4,8 C 0,0 km/h (0 Bft)
31.10.2014 22:25 4,8 C 93 % 1026,9 hPa 0,0 l/m 0,2 km/h (0 Bft) S-SO 157 3,8 C 4,8 C 0,0 km/h (0 Bft)
31.10.2014 22:30 4,7 C 93 % 1026,9 hPa 0,0 l/m 0,0 km/h (0 Bft) S-SO 157 3,7 C 4,7 C 0,0 km/h (0 Bft)
31.10.2014 22:35 4,3 C 93 % 1026,9 hPa 0,0 l/m 0,0 km/h (0 Bft) S-SO 157 3,3 C 4,5 C 0,0 km/h (0 Bft)
31.10.2014 22:40 3,8 C 93 % 1026,8 hPa 0,0 l/m 0,0 km/h (0 Bft) S-SO 157 2,8 C 4,2 C 0,0 km/h (0 Bft)
31.10.2014 22:45 4,1 C 92 % 1026,8 hPa 0,0 l/m 0,0 km/h (0 Bft) S-SO 157 2,9 C 4,1 C 0,0 km/h (0 Bft)
31.10.2014 22:50 3,8 C 93 % 1026,8 hPa 0,0 l/m 0,0 km/h (0 Bft) S-SO 157 2,8 C 4,1 C 0,0 km/h (0 Bft)
31.10.2014 22:55 3,6 C 92 % 1026,8 hPa 0,0 l/m 0,0 km/h (0 Bft) NO 45 2,4 C 3,9 C 0,0 km/h (0 Bft)
31.10.2014 23:00 3,9 C 93 % 1026,6 hPa 0,0 l/m 0,0 km/h (0 Bft) SO 135 2,9 C 3,7 C 0,0 km/h (0 Bft)
31.10.2014 23:05 3,8 C 93 % 1026,6 hPa 0,0 l/m 0,0 km/h (0 Bft) SO 135 2,8 C 3,7 C 0,0 km/h (0 Bft)
31.10.2014 23:10 4,0 C 93 % 1026,6 hPa 0,0 l/m 0,0 km/h (0 Bft) SO 135 3,0 C 3,7 C 0,0 km/h (0 Bft)
31.10.2014 23:15 3,9 C 93 % 1026,6 hPa 0,0 l/m 0,0 km/h (0 Bft) O-SO 112 2,9 C 3,6 C 0,0 km/h (0 Bft)
31.10.2014 23:20 3,9 C 93 % 1026,7 hPa 0,0 l/m 0,0 km/h (0 Bft) O-NO 67 2,9 C 3,7 C 0,0 km/h (0 Bft)
31.10.2014 23:25 3,9 C 93 % 1026,7 hPa 0,0 l/m 0,0 km/h (0 Bft) O-SO 112 2,9 C 3,7 C 0,0 km/h (0 Bft)
31.10.2014 23:30 3,7 C 93 % 1026,7 hPa 0,0 l/m 0,0 km/h (0 Bft) O-SO 112 2,7 C 3,7 C 0,0 km/h (0 Bft)
31.10.2014 23:35 4,1 C 93 % 1026,7 hPa 0,0 l/m 0,0 km/h (0 Bft) SO 135 3,1 C 3,7 C 1,6 km/h (1 Bft)
31.10.2014 23:40 4,5 C 93 % 1026,5 hPa 0,0 l/m 0,0 km/h (0 Bft) SO 135 3,5 C 3,7 C 0,0 km/h (0 Bft)
31.10.2014 23:45 4,4 C 93 % 1026,5 hPa 0,0 l/m 0,0 km/h (0 Bft) O-NO 67 3,4 C 3,9 C 1,6 km/h (1 Bft)
31.10.2014 23:50 4,2 C 93 % 1026,5 hPa 0,0 l/m 0,2 km/h (0 Bft) O-NO 67 3,2 C 4,0 C 0,0 km/h (0 Bft)
31.10.2014 23:55 4,3 C 93 % 1026,5 hPa 0,0 l/m 0,2 km/h (0 Bft) W 270 3,3 C 4,1 C 0,0 km/h (0 Bft)
_ Min-Zeit 05:25 15:00 23:55 - 23:45 - - 05:25 04:25 23:55
Minimum _ 1,1 C 58 % 1026,5 hPa - 0,0 km/h (0 Bft) - - 0,7 C 0,6 C 0,0 km/h (0 Bft)
_ Max-Zeit 12:30 08:45 11:55 23:55 13:00 - - 11:30 11:10 11:55
Maximum _ 15,9 C 97 % 1028,9 hPa 0,0 l/m 4,0 km/h
O-NO (1 Bft)
- - 12,5 C 21,1 C 7,7 km/h
O-NO (2 Bft)
Durchschnitt _ 6,6 C 87 % 1027,4 hPa #0,0 l/m 0,5 km/h (0 Bft) O-NO - 4,4 C 7,4 C 0,7 km/h (0 Bft)